Sadiqabad Weather



Sadiqabad's Current Weather

Temprature 28.55o clear sky

clear sky

Rain: 0 %

Min Temprature28.55o
Max Temprature28.55o
Humidity48
Wind Speed8.31 m/h
Sun Rise05:25:17
Sun Set19:07:36
Current Time: 24-May-2022 07:08:15
Lat/Lon: 28.3062, 70.1307




Sadiqabad's Geo Location



Sadiqabad's Weather Forecast

Time Overall Temp Min Temp Max Temp Humidity Wind Speed Rain
24-May-2022 (Tue)
08:00:00 clear sky 30.680 30.680 30.680 41 8.75 m/h 0 %
11:00:00 clear sky 32.950 32.950 37.480 35 6.8 m/h 0 %
14:00:00 clear sky 37.790 37.790 41.350 23 4.48 m/h 0 %
17:00:00 clear sky 41.920 41.920 41.920 11 2.81 m/h 0 %
20:00:00 clear sky 37.520 37.520 37.520 14 3.08 m/h 0 %
23:00:00 clear sky 34.730 34.730 34.730 17 4.06 m/h 0 %
25-May-2022 (Wed)
02:00:00 clear sky 32.290 32.290 32.290 19 3.87 m/h 0 %
05:00:00 clear sky 30.000 30.000 30.000 25 3.99 m/h 0 %
08:00:00 clear sky 33.970 33.970 33.970 23 4.03 m/h 0 %
11:00:00 clear sky 40.170 40.170 40.170 15 1.38 m/h 0 %
14:00:00 clear sky 43.780 43.780 43.780 10 1.92 m/h 0 %
17:00:00 clear sky 44.460 44.460 44.460 8 2.61 m/h 0 %
20:00:00 clear sky 39.420 39.420 39.420 11 2.49 m/h 0 %
23:00:00 clear sky 37.000 37.000 37.000 13 5.46 m/h 0 %
26-May-2022 (Thu)
02:00:00 clear sky 33.000 33.000 33.000 35 6.21 m/h 0 %
05:00:00 clear sky 29.930 29.930 29.930 51 3.65 m/h 0 %
08:00:00 clear sky 33.990 33.990 33.990 41 6.69 m/h 0 %
11:00:00 clear sky 42.100 42.100 42.100 22 6.87 m/h 0 %
14:00:00 clear sky 46.450 46.450 46.450 11 6.31 m/h 0 %
17:00:00 clear sky 46.410 46.410 46.410 11 6.59 m/h 0 %
20:00:00 clear sky 41.310 41.310 41.310 14 7.41 m/h 0 %
23:00:00 clear sky 35.040 35.040 35.040 38 10.83 m/h 0 %
27-May-2022 (Fri)
02:00:00 clear sky 30.750 30.750 30.750 54 9.34 m/h 0 %
05:00:00 clear sky 28.320 28.320 28.320 67 6.31 m/h 0 %
08:00:00 clear sky 32.090 32.090 32.090 53 7.94 m/h 0 %
11:00:00 clear sky 41.290 41.290 41.290 25 7.09 m/h 0 %
14:00:00 clear sky 47.940 47.940 47.940 10 5.37 m/h 0 %
17:00:00 clear sky 49.000 49.000 49.000 4 6.14 m/h 0 %
20:00:00 clear sky 43.320 43.320 43.320 4 7.36 m/h 0 %
23:00:00 clear sky 37.400 37.400 37.400 22 7.31 m/h 0 %
28-May-2022 (Sat)
02:00:00 clear sky 32.390 32.390 32.390 40 7.45 m/h 0 %
05:00:00 clear sky 29.090 29.090 29.090 52 6.13 m/h 0 %
08:00:00 clear sky 40.030 40.030 40.030 4 8.56 m/h 0 %
11:00:00 clear sky 46.230 46.230 46.230 2 11.86 m/h 0 %
14:00:00 clear sky 47.590 47.590 47.590 2 10.97 m/h 0 %
17:00:00 clear sky 46.800 46.800 46.800 2 10.56 m/h 0 %
20:00:00 clear sky 42.160 42.160 42.160 2 9.73 m/h 0 %
23:00:00 clear sky 38.150 38.150 38.150 4 6.66 m/h 0 %
29-May-2022 (Sun)
02:00:00 clear sky 34.280 34.280 34.280 4 4.78 m/h 0 %
05:00:00 clear sky 32.400 32.400 32.400 5 3.76 m/h 0 %


Sadiqabad's Tourist Spots

Historical Places in Sadiqabad

Famous Cities (61)